Portada
METAR-TAF:

METAR-TAF

Aeroports :

Havre City-County Airport

Havre, Montana, Estats Units d'Amèrica

latitud: 48-32-34N, longitud: 109-45-48W, altitud: 789 m

Observació

L'informe es va fer fa 1 hora i 6 minuts, a les 04:53 UTC
Vent 3 kt del Oest/Nord-Oest
Temperatura 12°C
Humitat 40%
Pressió 1011 hPa
Visibilitat: 16.1 km
Cel clar

METAR: KHVR 040453Z AUTO 29003KT 10SM CLR 12/M01 A2985 RMK AO2 SLP102 T01171006

Hora: 23:59 (05:59 UTC)

Pronòstic

L'informe es va fer fa 39 minuts, a les 05:20 UTC
Pronòstic vàlid del 04 a les 06 UTC al 05 a les 06 UTC
Vent 4 kt amb direcció variable
Visibilitat: 10 km
Núvols disperses a una alçada de 10000 ft
Cel ennuvolat a una alçada de 20000 ft

TAF: KHVR 040520Z 0406/0506 VRB04KT P6SM SCT100 BKN200

Observacions i pronòstics meteorològics de més de 4000 aeroports (METAR i TAF).

Les estacions disponibles són els punts grocs i vermells al mapa.

Posi el ratolí al punt desitjat per veure el nom de l'estació.

Feu clic per veure les observacions i els pronòstics meteorològics.

Per canviar el mapa: feu clic els botons verds amb una creu de color negre per apropar; al botó verd amb un guió per allunyar la imatge; o en les fletxes verdes per a mapes adjacents.


METAR-TAF: